createdAt,value
2018-04-19T00:01:52.956Z,71.28
2018-04-19T00:04:20.386Z,71.28
2018-04-19T00:06:47.800Z,70.85
2018-04-19T00:09:15.228Z,71.17
2018-04-19T00:11:42.642Z,70.95
2018-04-19T00:14:10.076Z,71.06
2018-04-19T00:16:37.505Z,71.02
2018-04-19T00:19:04.933Z,71.31
2018-04-19T00:21:32.344Z,71.65
2018-04-19T00:23:59.787Z,71.65
2018-04-19T00:26:27.199Z,71.72
2018-04-19T00:28:54.626Z,72.38
2018-04-19T00:31:22.066Z,71.97
2018-04-19T00:33:49.508Z,72.13
2018-04-19T00:36:16.956Z,72.37
2018-04-19T00:38:44.393Z,72.65
2018-04-19T00:41:11.828Z,72.56
2018-04-19T00:43:39.253Z,72.74
2018-04-19T00:46:06.764Z,72.71
2018-04-19T00:48:34.185Z,72.95
2018-04-19T00:51:02.424Z,72.87
2018-04-19T00:53:29.858Z,72.73
2018-04-19T00:55:57.276Z,72.45
2018-04-19T00:58:24.722Z,72.30
2018-04-19T01:00:52.124Z,73.14
2018-04-19T01:03:19.553Z,73.63
2018-04-19T01:05:46.964Z,72.94
2018-04-19T01:08:14.393Z,73.43
2018-04-19T01:10:41.809Z,74.82
2018-04-19T01:13:09.232Z,74.22
2018-04-19T01:15:36.664Z,73.84
2018-04-19T01:18:04.083Z,74.60
2018-04-19T01:20:31.500Z,75.16
2018-04-19T01:22:58.924Z,74.22
2018-04-19T01:25:26.491Z,75.31
2018-04-19T01:27:53.899Z,75.18
2018-04-19T01:30:21.312Z,75.47
2018-04-19T01:32:48.752Z,74.26
2018-04-19T01:35:16.171Z,74.91
2018-04-19T01:37:43.748Z,74.64
2018-04-19T01:40:11.199Z,74.23
2018-04-19T01:42:38.615Z,73.91
2018-04-19T01:45:06.053Z,73.96
2018-04-19T01:47:33.491Z,74.85
2018-04-19T01:50:00.905Z,74.21
2018-04-19T01:52:28.320Z,74.43
2018-04-19T01:54:55.760Z,74.72
2018-04-19T01:57:23.171Z,74.76
2018-04-19T01:59:50.592Z,75.35
2018-04-19T02:02:18.019Z,75.97
2018-04-19T02:04:45.432Z,77.02
2018-04-19T02:07:12.896Z,76.38
2018-04-19T02:09:40.281Z,76.38
2018-04-19T02:12:07.688Z,76.34
2018-04-19T02:14:35.120Z,76.14
2018-04-19T02:17:02.541Z,75.85
2018-04-19T02:19:29.957Z,76.40
2018-04-19T02:21:57.391Z,75.87
2018-04-19T02:24:24.796Z,75.74
2018-04-19T02:26:52.231Z,75.73
2018-04-19T02:29:19.640Z,75.45
2018-04-19T02:31:47.073Z,75.50
2018-04-19T02:34:14.504Z,75.75
2018-04-19T02:36:41.922Z,75.39
2018-04-19T02:39:09.365Z,75.24
2018-04-19T02:41:36.793Z,75.24
2018-04-19T02:44:04.225Z,75.73
2018-04-19T02:46:31.656Z,76.58
2018-04-19T02:48:59.099Z,75.98
2018-04-19T02:51:26.517Z,75.92
2018-04-19T02:53:54.126Z,76.21
2018-04-19T02:56:21.548Z,76.00
2018-04-19T02:58:48.960Z,76.56
2018-04-19T03:01:16.403Z,76.18
2018-04-19T03:03:43.808Z,76.20
2018-04-19T03:06:11.512Z,76.02
2018-04-19T03:08:39.080Z,75.90
2018-04-19T03:11:06.500Z,76.03
2018-04-19T03:13:33.904Z,75.76
2018-04-19T03:16:01.337Z,76.84
2018-04-19T03:18:28.764Z,77.14
2018-04-19T03:20:56.168Z,77.72
2018-04-19T03:23:23.613Z,77.63
2018-04-19T03:25:51.016Z,77.44
2018-04-19T03:28:18.433Z,76.66
2018-04-19T03:30:45.863Z,76.37
2018-04-19T03:33:13.267Z,76.15
2018-04-19T03:35:40.683Z,76.00
2018-04-19T03:38:08.112Z,76.00
2018-04-19T03:40:35.524Z,76.10
2018-04-19T03:43:02.956Z,75.98
2018-04-19T03:45:30.364Z,75.80
2018-04-19T03:47:57.774Z,76.54
2018-04-19T03:50:25.214Z,76.73
2018-04-19T03:52:52.650Z,77.00
2018-04-19T03:55:20.142Z,77.26
2018-04-19T03:57:47.540Z,76.88
2018-04-19T04:00:14.962Z,76.73
2018-04-19T04:02:42.374Z,77.14
2018-04-19T04:05:09.808Z,76.97
2018-04-19T04:07:37.229Z,76.68
2018-04-19T04:10:04.646Z,76.51
2018-04-19T04:12:32.068Z,76.43
2018-04-19T04:14:59.495Z,76.51
2018-04-19T04:17:38.598Z,76.48
2018-04-19T04:20:19.564Z,76.48
2018-04-19T04:22:58.632Z,76.55
2018-04-19T04:25:26.047Z,76.47
2018-04-19T04:27:53.476Z,76.26
2018-04-19T04:30:20.926Z,76.97
2018-04-19T04:32:48.353Z,76.86
2018-04-19T04:35:15.847Z,76.87
2018-04-19T04:37:43.257Z,76.40
2018-04-19T04:40:10.685Z,76.09
2018-04-19T04:42:38.127Z,75.99
2018-04-19T04:45:05.549Z,75.73
2018-04-19T04:47:33.001Z,75.68
2018-04-19T04:50:00.439Z,75.38
2018-04-19T04:52:27.853Z,75.17
2018-04-19T04:54:55.269Z,74.43
2018-04-19T04:57:22.688Z,73.26
2018-04-19T04:59:50.116Z,71.74
2018-04-19T05:02:17.554Z,70.15
2018-04-19T05:04:44.956Z,68.60
2018-04-19T05:07:12.381Z,67.09
2018-04-19T05:09:39.791Z,65.41
2018-04-19T05:12:07.216Z,64.21
2018-04-19T05:14:34.649Z,62.48
2018-04-19T05:17:02.072Z,61.92
2018-04-19T05:19:29.483Z,60.93
2018-04-19T05:21:56.906Z,59.05
2018-04-19T05:24:24.332Z,59.00
2018-04-19T05:26:51.832Z,57.85
2018-04-19T05:29:19.252Z,56.00
2018-04-19T05:31:46.746Z,54.64
2018-04-19T05:34:14.157Z,54.27
2018-04-19T05:36:41.590Z,53.86
2018-04-19T05:39:09.001Z,51.97
2018-04-19T05:41:36.464Z,51.01
2018-04-19T05:44:03.917Z,50.91
2018-04-19T05:46:31.440Z,48.72
2018-04-19T05:48:58.900Z,47.65
2018-04-19T05:51:26.336Z,47.56
2018-04-19T05:53:53.814Z,46.98
2018-04-19T05:56:21.228Z,46.67
2018-04-19T05:58:48.654Z,44.67
2018-04-19T06:01:16.267Z,41.88
2018-04-19T06:03:43.692Z,41.99
2018-04-19T06:06:11.114Z,42.58
2018-04-19T06:08:38.622Z,43.32
2018-04-19T06:11:06.043Z,42.58
2018-04-19T06:13:33.525Z,41.60
2018-04-19T06:16:00.961Z,39.05
2018-04-19T06:18:28.456Z,38.87
2018-04-19T06:20:55.890Z,39.19
2018-04-19T06:23:23.315Z,39.75
2018-04-19T06:25:50.757Z,38.88
2018-04-19T06:28:18.189Z,38.12
2018-04-19T06:30:45.956Z,37.64
2018-04-19T06:33:13.390Z,36.88
2018-04-19T06:35:40.821Z,34.92
2018-04-19T06:38:08.265Z,35.07
2018-04-19T06:40:36.608Z,34.73
2018-04-19T06:43:04.052Z,35.93
2018-04-19T06:45:31.485Z,36.10
2018-04-19T06:47:58.904Z,35.62
2018-04-19T06:50:26.372Z,35.62
2018-04-19T06:52:53.820Z,35.20
2018-04-19T06:55:21.245Z,34.10
2018-04-19T06:57:48.851Z,33.71
2018-04-19T07:00:16.292Z,33.96
2018-04-19T07:02:43.719Z,33.72
2018-04-19T07:05:11.342Z,33.93
2018-04-19T07:07:38.772Z,34.29
2018-04-19T07:10:06.344Z,33.64
2018-04-19T07:12:33.912Z,35.23
2018-04-19T07:15:01.365Z,34.88
2018-04-19T07:17:28.786Z,33.45
2018-04-19T07:19:56.244Z,32.65
2018-04-19T07:22:23.837Z,33.06
2018-04-19T07:24:51.269Z,33.28
2018-04-19T07:27:18.696Z,33.81
2018-04-19T07:29:46.163Z,33.55
2018-04-19T07:32:13.632Z,33.63
2018-04-19T07:34:40.999Z,33.61
2018-04-19T07:37:08.459Z,33.87
2018-04-19T07:39:35.914Z,33.08
2018-04-19T07:42:03.350Z,33.04
2018-04-19T07:44:30.799Z,32.06
2018-04-19T07:46:58.213Z,30.52
2018-04-19T07:49:25.650Z,31.38
2018-04-19T07:51:53.090Z,30.88
2018-04-19T07:54:20.543Z,30.81
2018-04-19T07:56:48.005Z,31.68
2018-04-19T07:59:15.464Z,31.50
2018-04-19T08:01:42.898Z,31.37
2018-04-19T08:04:10.341Z,32.13
2018-04-19T08:06:37.753Z,32.11
2018-04-19T08:09:07.826Z,31.94
2018-04-19T08:11:35.296Z,31.15
2018-04-19T08:14:02.765Z,31.27
2018-04-19T08:16:30.196Z,30.25
2018-04-19T08:18:57.641Z,30.17
2018-04-19T08:21:25.059Z,30.51
2018-04-19T08:23:52.526Z,30.39
2018-04-19T08:26:19.976Z,30.08
2018-04-19T08:28:47.442Z,30.16
2018-04-19T08:31:14.887Z,30.07
2018-04-19T08:33:42.351Z,30.18
2018-04-19T08:36:09.800Z,28.36
2018-04-19T08:38:37.232Z,29.60
2018-04-19T08:41:04.686Z,30.05
2018-04-19T08:43:32.121Z,29.14
2018-04-19T08:45:59.574Z,30.02
2018-04-19T08:48:27.000Z,29.30
2018-04-19T08:50:54.441Z,29.03
2018-04-19T08:53:21.859Z,29.68
2018-04-19T08:55:49.309Z,29.14
2018-04-19T08:58:16.729Z,29.94
2018-04-19T09:00:44.148Z,29.93
2018-04-19T09:03:11.588Z,29.92
2018-04-19T09:05:39.021Z,28.78
2018-04-19T09:08:06.480Z,28.50
2018-04-19T09:10:33.955Z,28.09
2018-04-19T09:13:01.397Z,28.78
2018-04-19T09:15:28.865Z,28.76
2018-04-19T09:17:56.325Z,28.87
2018-04-19T09:20:23.758Z,27.92
2018-04-19T09:22:51.226Z,27.95
2018-04-19T09:25:18.666Z,27.93
2018-04-19T09:27:46.111Z,26.68
2018-04-19T09:30:13.552Z,27.17
2018-04-19T09:32:40.989Z,26.09
2018-04-19T09:35:08.431Z,26.67
2018-04-19T09:37:36.021Z,27.13
2018-04-19T09:40:03.457Z,27.63
2018-04-19T09:42:30.903Z,26.66
2018-04-19T09:44:58.349Z,26.19
2018-04-19T09:47:25.799Z,27.30
2018-04-19T09:49:53.268Z,27.75
2018-04-19T09:52:20.696Z,26.82
2018-04-19T09:54:48.145Z,26.55
2018-04-19T09:57:15.638Z,28.12
2018-04-19T09:59:43.119Z,28.22
2018-04-19T10:02:10.567Z,26.87
2018-04-19T10:04:38.132Z,27.86
2018-04-19T10:07:05.560Z,28.00
2018-04-19T10:09:33.010Z,28.21
2018-04-19T10:12:00.460Z,27.40
2018-04-19T10:14:27.875Z,27.46
2018-04-19T10:16:55.412Z,27.84
2018-04-19T10:19:22.847Z,27.78
2018-04-19T10:21:50.255Z,26.42
2018-04-19T10:24:17.702Z,27.11
2018-04-19T10:26:45.133Z,28.67
2018-04-19T10:29:12.573Z,27.16
2018-04-19T10:31:39.981Z,27.02
2018-04-19T10:34:07.453Z,27.33
2018-04-19T10:36:34.872Z,29.50
2018-04-19T10:39:02.299Z,29.61
2018-04-19T10:41:29.893Z,30.29
2018-04-19T10:43:57.342Z,30.24
2018-04-19T10:46:24.798Z,30.70
2018-04-19T10:48:52.252Z,30.86
2018-04-19T10:51:19.687Z,30.19
2018-04-19T10:53:47.105Z,29.77
2018-04-19T10:56:14.688Z,29.50
2018-04-19T10:58:42.099Z,29.48
2018-04-19T11:01:09.518Z,29.79
2018-04-19T11:03:36.947Z,30.06
2018-04-19T11:06:04.392Z,30.38
2018-04-19T11:08:31.809Z,30.21
2018-04-19T11:10:59.247Z,29.49
2018-04-19T11:13:26.681Z,30.10
2018-04-19T11:15:54.165Z,29.96
2018-04-19T11:18:21.609Z,30.04
2018-04-19T11:20:49.028Z,29.50
2018-04-19T11:23:16.464Z,28.82
2018-04-19T11:25:43.888Z,29.00
2018-04-19T11:28:11.314Z,29.68
2018-04-19T11:30:38.769Z,29.13
2018-04-19T11:33:06.296Z,26.85
2018-04-19T11:35:33.701Z,26.92
2018-04-19T11:38:01.123Z,27.76
2018-04-19T11:40:28.568Z,26.97
2018-04-19T11:42:55.983Z,26.45
2018-04-19T11:45:23.400Z,26.45
2018-04-19T11:47:50.847Z,25.95
2018-04-19T11:50:18.289Z,26.39
2018-04-19T11:52:45.831Z,27.32
2018-04-19T11:55:13.277Z,26.46
2018-04-19T11:57:40.685Z,26.14
2018-04-19T12:00:08.143Z,26.46
2018-04-19T12:02:35.559Z,26.21
2018-04-19T12:05:02.981Z,26.04
2018-04-19T12:07:30.456Z,26.38
2018-04-19T12:09:57.828Z,25.34
2018-04-19T12:12:25.257Z,26.12
2018-04-19T12:14:52.669Z,25.90
2018-04-19T12:17:20.093Z,25.94
2018-04-19T12:19:47.666Z,26.86
2018-04-19T12:22:16.107Z,26.48
2018-04-19T12:24:44.047Z,25.64
2018-04-19T12:27:11.491Z,25.59
2018-04-19T12:29:38.914Z,26.06
2018-04-19T12:32:06.335Z,25.81
2018-04-19T12:34:33.794Z,25.16
2018-04-19T12:37:01.311Z,25.53
2018-04-19T12:39:28.723Z,24.80
2018-04-19T12:41:56.149Z,24.34
2018-04-19T12:44:23.618Z,24.55
2018-04-19T12:46:51.036Z,25.08
2018-04-19T12:49:18.455Z,25.05
2018-04-19T12:51:45.890Z,25.34
2018-04-19T12:54:13.299Z,24.19
2018-04-19T12:56:40.865Z,24.80
2018-04-19T12:59:08.273Z,24.16
2018-04-19T13:01:35.747Z,24.61
2018-04-19T13:04:03.182Z,24.34
2018-04-19T13:06:30.647Z,24.62
2018-04-19T13:08:58.033Z,25.49
2018-04-19T13:11:25.453Z,25.62
2018-04-19T13:13:52.893Z,24.08
2018-04-19T13:16:20.302Z,23.51
2018-04-19T13:18:47.716Z,23.20
2018-04-19T13:21:15.146Z,23.97
2018-04-19T13:23:42.576Z,23.17
2018-04-19T13:26:10.003Z,23.55
2018-04-19T13:28:37.431Z,23.41
2018-04-19T13:31:04.840Z,22.98
2018-04-19T13:33:32.287Z,23.09
2018-04-19T13:35:59.724Z,22.73
2018-04-19T13:38:27.189Z,23.53
2018-04-19T13:40:54.632Z,22.40
2018-04-19T13:43:22.040Z,22.48
2018-04-19T13:45:49.488Z,23.35
2018-04-19T13:48:16.908Z,23.45
2018-04-19T13:50:44.316Z,22.69
2018-04-19T13:53:11.740Z,23.37
2018-04-19T13:55:39.401Z,22.95
2018-04-19T13:58:06.846Z,23.40
2018-04-19T14:00:34.286Z,22.88
2018-04-19T14:03:01.699Z,22.06
2018-04-19T14:05:29.113Z,21.62
2018-04-19T14:07:56.658Z,22.19
2018-04-19T14:10:24.091Z,22.73
2018-04-19T14:12:51.520Z,22.73
2018-04-19T14:15:18.971Z,23.03
2018-04-19T14:17:46.397Z,22.93
2018-04-19T14:20:13.814Z,23.34
2018-04-19T14:22:41.291Z,23.01
2018-04-19T14:25:08.727Z,22.92
2018-04-19T14:27:36.157Z,23.69
2018-04-19T14:30:03.590Z,23.26
2018-04-19T14:32:31.043Z,23.23
2018-04-19T14:34:58.463Z,22.52
2018-04-19T14:37:26.405Z,23.01
2018-04-19T14:39:55.084Z,22.81
2018-04-19T14:42:22.658Z,22.99
2018-04-19T14:44:50.090Z,23.71
2018-04-19T14:47:17.581Z,24.34
2018-04-19T14:49:45.027Z,23.08
2018-04-19T14:52:12.461Z,22.77
2018-04-19T14:54:39.863Z,23.49
2018-04-19T14:57:07.290Z,23.39
2018-04-19T14:59:34.719Z,23.54
2018-04-19T15:02:02.138Z,23.05
2018-04-19T15:04:29.571Z,23.34
2018-04-19T15:06:56.977Z,23.10
2018-04-19T15:09:24.424Z,23.59
2018-04-19T15:11:51.824Z,23.50
2018-04-19T15:14:19.240Z,23.14
2018-04-19T15:16:46.669Z,23.57
2018-04-19T15:19:14.089Z,23.07
2018-04-19T15:21:41.510Z,23.45
2018-04-19T15:24:08.996Z,24.15
2018-04-19T15:26:36.409Z,23.71
2018-04-19T15:29:03.860Z,23.55
2018-04-19T15:31:31.278Z,23.64
2018-04-19T15:33:58.697Z,24.15
2018-04-19T15:36:26.116Z,24.44
2018-04-19T15:38:53.543Z,24.48
2018-04-19T15:41:21.017Z,24.17
2018-04-19T15:43:48.414Z,24.53
2018-04-19T15:46:15.796Z,25.01
2018-04-19T15:48:43.248Z,25.00
2018-04-19T15:51:10.696Z,25.34
2018-04-19T15:53:38.146Z,25.38
2018-04-19T15:56:05.570Z,25.57
2018-04-19T15:58:32.973Z,25.19
2018-04-19T16:01:00.408Z,24.24
2018-04-19T16:03:27.808Z,24.56
2018-04-19T16:05:55.996Z,24.40
2018-04-19T16:08:23.432Z,25.12
2018-04-19T16:10:50.864Z,25.21
2018-04-19T16:13:19.169Z,25.33
2018-04-19T16:15:46.614Z,25.43
2018-04-19T16:18:14.036Z,25.61
2018-04-19T16:20:41.449Z,25.87
2018-04-19T16:23:08.868Z,25.60
2018-04-19T16:25:36.280Z,25.79
2018-04-19T16:28:03.726Z,25.85
2018-04-19T16:30:31.184Z,25.47
2018-04-19T16:32:58.653Z,26.33
2018-04-19T16:35:26.114Z,26.51
2018-04-19T16:37:53.539Z,25.83
2018-04-19T16:40:21.106Z,26.28
2018-04-19T16:42:48.527Z,26.38
2018-04-19T16:45:16.023Z,26.74
2018-04-19T16:47:43.460Z,26.64
2018-04-19T16:50:10.951Z,26.73
2018-04-19T16:52:38.316Z,26.90
2018-04-19T16:55:05.753Z,27.03
2018-04-19T16:57:33.190Z,27.28
2018-04-19T17:00:00.592Z,27.54
2018-04-19T17:02:28.008Z,27.61
2018-04-19T17:04:55.497Z,27.87
2018-04-19T17:07:22.916Z,28.00
2018-04-19T17:09:50.345Z,28.04
2018-04-19T17:12:17.752Z,27.99
2018-04-19T17:14:45.207Z,27.94
2018-04-19T17:17:12.973Z,28.03
2018-04-19T17:19:40.420Z,28.17
2018-04-19T17:22:07.834Z,27.97
2018-04-19T17:24:35.273Z,27.79
2018-04-19T17:27:02.862Z,27.85
2018-04-19T17:29:30.293Z,28.22
2018-04-19T17:31:57.728Z,28.55
2018-04-19T17:34:25.191Z,28.36
2018-04-19T17:36:52.584Z,28.47
2018-04-19T17:39:20.005Z,28.24
2018-04-19T17:41:47.456Z,28.14
2018-04-19T17:44:14.868Z,28.03
2018-04-19T17:46:42.276Z,28.37
2018-04-19T17:49:09.813Z,28.15
2018-04-19T17:51:37.217Z,28.50
2018-04-19T17:54:04.657Z,28.61
2018-04-19T17:56:32.061Z,28.56
2018-04-19T17:58:59.480Z,28.77
2018-04-19T18:01:26.924Z,28.79
2018-04-19T18:03:54.485Z,29.02
2018-04-19T18:06:21.919Z,29.17
2018-04-19T18:08:49.354Z,29.19
2018-04-19T18:11:16.779Z,29.43
2018-04-19T18:13:44.308Z,29.59
2018-04-19T18:16:11.712Z,29.77
2018-04-19T18:18:39.123Z,30.01
2018-04-19T18:21:06.553Z,30.16
2018-04-19T18:23:34.147Z,30.34
2018-04-19T18:26:01.649Z,30.55
2018-04-19T18:28:29.488Z,30.59
2018-04-19T18:30:57.792Z,30.88
2018-04-19T18:33:25.371Z,31.03
2018-04-19T18:35:52.980Z,31.16
2018-04-19T18:38:20.460Z,31.32
2018-04-19T18:40:47.900Z,31.52
2018-04-19T18:43:15.421Z,31.77
2018-04-19T18:45:42.845Z,31.99
2018-04-19T18:48:10.281Z,32.45
2018-04-19T18:50:37.710Z,32.40
2018-04-19T18:53:05.277Z,32.62
2018-04-19T18:55:32.723Z,32.72
2018-04-19T18:58:00.442Z,32.91
2018-04-19T19:00:28.097Z,32.98
2018-04-19T19:02:55.803Z,33.09
2018-04-19T19:05:23.438Z,33.25
2018-04-19T19:07:50.860Z,33.31
2018-04-19T19:10:18.304Z,33.43
2018-04-19T19:12:45.725Z,33.73
2018-04-19T19:18:46.799Z,33.79
2018-04-19T19:21:14.224Z,34.01
2018-04-19T19:23:41.654Z,34.20
2018-04-19T19:26:09.072Z,34.53
2018-04-19T19:28:36.509Z,34.78
2018-04-19T19:31:03.933Z,35.21
2018-04-19T19:33:31.400Z,35.46
2018-04-19T19:35:58.809Z,35.90
2018-04-19T19:38:26.317Z,35.97
2018-04-19T19:40:53.683Z,36.13
2018-04-19T19:43:21.144Z,36.19
2018-04-19T19:45:48.669Z,36.46
2018-04-19T19:48:16.072Z,36.80
2018-04-19T19:50:43.480Z,36.85
2018-04-19T19:53:10.913Z,37.12
2018-04-19T19:55:38.328Z,37.09
2018-04-19T19:58:05.776Z,37.33
2018-04-19T20:00:33.606Z,37.51
2018-04-19T20:03:01.020Z,37.85
2018-04-19T20:05:28.441Z,37.86
2018-04-19T20:07:55.858Z,38.03
2018-04-19T20:10:23.296Z,38.04
2018-04-19T20:12:50.697Z,38.05
2018-04-19T20:15:18.107Z,38.29
2018-04-19T20:17:45.706Z,38.36
2018-04-19T20:20:13.133Z,38.47
2018-04-19T20:22:40.568Z,38.76
2018-04-19T20:25:08.048Z,39.13
2018-04-19T20:27:35.464Z,39.28
2018-04-19T20:30:02.928Z,39.36
2018-04-19T20:32:30.344Z,39.34
2018-04-19T20:34:57.803Z,39.56
2018-04-19T20:37:25.214Z,39.43
2018-04-19T20:39:52.621Z,39.54
2018-04-19T20:42:20.045Z,39.79
2018-04-19T20:44:47.469Z,40.02
2018-04-19T20:47:14.885Z,40.23
2018-04-19T20:49:42.459Z,40.20
2018-04-19T20:52:09.880Z,40.28
2018-04-19T20:54:37.284Z,40.33
2018-04-19T20:57:04.724Z,40.74
2018-04-19T20:59:32.130Z,40.90
2018-04-19T21:01:59.590Z,41.09
2018-04-19T21:04:26.976Z,41.13
2018-04-19T21:06:54.391Z,41.21
2018-04-19T21:09:21.791Z,41.44
2018-04-19T21:11:49.204Z,41.37
2018-04-19T21:14:16.629Z,41.41
2018-04-19T21:16:44.047Z,41.71
2018-04-19T21:19:11.467Z,42.08
2018-04-19T21:21:38.889Z,42.16
2018-04-19T21:24:06.285Z,42.46
2018-04-19T21:26:33.727Z,42.45
2018-04-19T21:29:01.140Z,42.71
2018-04-19T21:31:28.564Z,42.64
2018-04-19T21:33:55.984Z,42.74
2018-04-19T21:36:23.495Z,42.95
2018-04-19T21:38:50.831Z,42.98
2018-04-19T21:41:18.260Z,43.07
2018-04-19T21:43:45.682Z,43.09
2018-04-19T21:46:13.095Z,43.15
2018-04-19T21:48:40.525Z,43.32
2018-04-19T21:51:07.967Z,43.45
2018-04-19T21:53:35.402Z,43.44
2018-04-19T21:56:02.821Z,43.56
2018-04-19T21:58:30.242Z,43.83
2018-04-19T22:00:57.667Z,43.96
2018-04-19T22:03:25.081Z,45.09
2018-04-19T22:05:52.496Z,46.23
2018-04-19T22:08:19.928Z,45.72
2018-04-19T22:10:47.345Z,45.88
2018-04-19T22:13:14.759Z,46.42
2018-04-19T22:15:42.180Z,47.22
2018-04-19T22:18:09.623Z,47.45
2018-04-19T22:20:37.037Z,46.51
2018-04-19T22:23:04.496Z,46.65
2018-04-19T22:25:32.097Z,47.01
2018-04-19T22:27:59.522Z,47.15
2018-04-19T22:30:26.935Z,46.80
2018-04-19T22:32:54.353Z,47.21
2018-04-19T22:35:21.777Z,47.69
2018-04-19T22:37:49.183Z,47.49
2018-04-19T22:40:16.640Z,49.06
2018-04-19T22:42:44.062Z,49.90
2018-04-19T22:45:11.476Z,49.78
2018-04-19T22:47:38.904Z,50.53
2018-04-19T22:50:06.326Z,51.06
2018-04-19T22:52:33.758Z,51.88
2018-04-19T22:55:01.169Z,50.85
2018-04-19T22:57:28.573Z,52.06
2018-04-19T22:59:56.106Z,52.14
2018-04-19T23:02:23.546Z,52.03
2018-04-19T23:04:50.968Z,52.56
2018-04-19T23:07:18.413Z,50.91
2018-04-19T23:09:45.819Z,51.43
2018-04-19T23:12:13.230Z,51.64
2018-04-19T23:14:40.768Z,50.82
2018-04-19T23:17:08.184Z,52.25
2018-04-19T23:19:35.602Z,51.95
2018-04-19T23:22:03.198Z,51.56
2018-04-19T23:24:30.592Z,51.18
2018-04-19T23:26:58.005Z,51.75
2018-04-19T23:29:25.469Z,51.75
2018-04-19T23:31:52.857Z,51.77
2018-04-19T23:34:20.329Z,51.81
2018-04-19T23:36:47.710Z,51.58
2018-04-19T23:39:15.125Z,52.06
2018-04-19T23:41:42.536Z,51.93
2018-04-19T23:44:09.983Z,51.91
2018-04-19T23:46:37.381Z,52.02
2018-04-19T23:49:04.808Z,52.23
2018-04-19T23:51:32.247Z,52.49
2018-04-19T23:53:59.662Z,52.62
2018-04-19T23:56:27.090Z,52.69
2018-04-19T23:58:54.533Z,52.74
